DC52 weather

Sibley Memorial Hospital Heliport
Washington, District of Columbia, United States

Public forecast

Using degrees Fahrenheit for public forecast. Weather courtesy of forecast.io.

Closest aviation weather report (METAR) to Sibley Memorial Hospital Heliport

Closest report is Ronald Reagan Washington National Airport, 6.1 nm (11.3 km) SE. Retrieved 2020/06/04 00:52 UTC (22 minutes ago):

KDCA 040052Z COR 24005KT 10SM FEW070 FEW095 SCT110 BKN250 30/18 A2972 RMK AO2 SLP064 T03000183

Closest aviation forecast (TAF) to Sibley Memorial Hospital Heliport

Closest forecast is Ronald Reagan Washington National Airport, 6.1 nm (11.3 km) SE. Retrieved 2020-06-04 00:30 UTC (44 minutes ago):

TAF KDCA 032327Z 0400/0506 23010G18KT P6SM BKN130 FM040100 24008KT P6SM BKN130 FM040600 27008KT P6SM BKN130 FM041500 19008KT P6SM SCT050 BKN130 FM042000 18008G16KT P6SM VCTS SCT050CB BKN130 FM050000 19008KT P6SM SCT050 BKN130